sensor_id;sensor_type;location;lat;lon;timestamp;P1;durP1;ratioP1;P2;durP2;ratioP2
76693;SDS011;65625;52.136;5.424;2023-04-01T00:01:02;8.57;;;4.43;;
76693;SDS011;65625;52.136;5.424;2023-04-01T00:03:32;13.27;;;5.20;;
76693;SDS011;65625;52.136;5.424;2023-04-01T00:06:00;16.98;;;5.30;;
76693;SDS011;65625;52.136;5.424;2023-04-01T00:08:27;14.38;;;4.93;;
76693;SDS011;65625;52.136;5.424;2023-04-01T00:10:54;17.65;;;5.28;;
76693;SDS011;65625;52.136;5.424;2023-04-01T00:13:21;15.85;;;5.55;;
76693;SDS011;65625;52.136;5.424;2023-04-01T00:15:48;15.25;;;5.70;;
76693;SDS011;65625;52.136;5.424;2023-04-01T00:18:15;14.80;;;5.00;;
76693;SDS011;65625;52.136;5.424;2023-04-01T00:20:45;12.77;;;5.40;;
76693;SDS011;65625;52.136;5.424;2023-04-01T00:23:13;15.57;;;6.05;;
76693;SDS011;65625;52.136;5.424;2023-04-01T00:25:41;11.20;;;5.00;;
76693;SDS011;65625;52.136;5.424;2023-04-01T00:28:08;18.83;;;4.95;;
76693;SDS011;65625;52.136;5.424;2023-04-01T00:30:35;14.02;;;5.38;;
76693;SDS011;65625;52.136;5.424;2023-04-01T00:33:03;17.45;;;5.13;;
76693;SDS011;65625;52.136;5.424;2023-04-01T00:35:30;16.55;;;5.53;;
76693;SDS011;65625;52.136;5.424;2023-04-01T00:37:57;19.38;;;5.72;;
76693;SDS011;65625;52.136;5.424;2023-04-01T00:40:33;19.00;;;5.43;;
76693;SDS011;65625;52.136;5.424;2023-04-01T00:43:01;17.05;;;5.75;;
76693;SDS011;65625;52.136;5.424;2023-04-01T00:45:30;13.68;;;5.75;;
76693;SDS011;65625;52.136;5.424;2023-04-01T00:48:04;17.23;;;6.00;;
76693;SDS011;65625;52.136;5.424;2023-04-01T00:50:34;18.63;;;5.80;;
76693;SDS011;65625;52.136;5.424;2023-04-01T00:53:03;19.38;;;5.63;;
76693;SDS011;65625;52.136;5.424;2023-04-01T00:55:32;21.80;;;6.15;;
76693;SDS011;65625;52.136;5.424;2023-04-01T00:58:02;23.90;;;6.70;;
76693;SDS011;65625;52.136;5.424;2023-04-01T01:00:32;19.27;;;6.68;;
76693;SDS011;65625;52.136;5.424;2023-04-01T01:02:59;19.42;;;6.07;;
76693;SDS011;65625;52.136;5.424;2023-04-01T01:05:30;16.48;;;5.85;;
76693;SDS011;65625;52.136;5.424;2023-04-01T01:08:21;13.00;;;5.57;;
76693;SDS011;65625;52.136;5.424;2023-04-01T01:10:52;21.27;;;6.18;;
76693;SDS011;65625;52.136;5.424;2023-04-01T01:18:53;20.80;;;6.20;;
76693;SDS011;65625;52.136;5.424;2023-04-01T01:24:27;14.93;;;5.53;;
76693;SDS011;65625;52.136;5.424;2023-04-01T01:27:11;21.95;;;6.45;;
76693;SDS011;65625;52.136;5.424;2023-04-01T01:38:02;20.02;;;5.20;;
76693;SDS011;65625;52.136;5.424;2023-04-01T01:40:32;12.20;;;5.10;;
76693;SDS011;65625;52.136;5.424;2023-04-01T01:43:05;13.10;;;4.85;;
76693;SDS011;65625;52.136;5.424;2023-04-01T01:45:35;12.63;;;4.32;;
76693;SDS011;65625;52.136;5.424;2023-04-01T01:48:06;14.25;;;4.78;;
76693;SDS011;65625;52.136;5.424;2023-04-01T01:50:35;13.90;;;4.10;;
76693;SDS011;65625;52.136;5.424;2023-04-01T01:53:04;17.92;;;3.75;;
76693;SDS011;65625;52.136;5.424;2023-04-01T01:55:36;13.18;;;3.15;;
76693;SDS011;65625;52.136;5.424;2023-04-01T02:00:53;6.60;;;2.92;;
76693;SDS011;65625;52.136;5.424;2023-04-01T02:03:25;5.60;;;2.55;;
76693;SDS011;65625;52.136;5.424;2023-04-01T02:05:55;7.47;;;3.10;;
76693;SDS011;65625;52.136;5.424;2023-04-01T02:11:10;9.18;;;2.90;;
76693;SDS011;65625;52.136;5.424;2023-04-01T02:14:27;6.07;;;2.15;;
76693;SDS011;65625;52.136;5.424;2023-04-01T02:16:41;5.13;;;2.78;;
76693;SDS011;65625;52.136;5.424;2023-04-01T02:19:14;8.00;;;2.25;;
76693;SDS011;65625;52.136;5.424;2023-04-01T02:21:49;5.80;;;2.47;;
76693;SDS011;65625;52.136;5.424;2023-04-01T02:24:19;4.85;;;2.10;;
76693;SDS011;65625;52.136;5.424;2023-04-01T02:26:48;6.80;;;2.80;;
76693;SDS011;65625;52.136;5.424;2023-04-01T02:29:18;6.55;;;2.13;;
76693;SDS011;65625;52.136;5.424;2023-04-01T02:31:47;5.03;;;2.17;;
76693;SDS011;65625;52.136;5.424;2023-04-01T02:34:15;7.28;;;2.53;;
76693;SDS011;65625;52.136;5.424;2023-04-01T02:36:42;6.43;;;2.22;;
76693;SDS011;65625;52.136;5.424;2023-04-01T02:39:09;5.00;;;2.20;;
76693;SDS011;65625;52.136;5.424;2023-04-01T02:41:40;6.75;;;2.00;;
76693;SDS011;65625;52.136;5.424;2023-04-01T02:44:08;4.80;;;2.47;;
76693;SDS011;65625;52.136;5.424;2023-04-01T02:46:36;7.65;;;2.58;;
76693;SDS011;65625;52.136;5.424;2023-04-01T02:49:03;5.80;;;2.42;;
76693;SDS011;65625;52.136;5.424;2023-04-01T02:51:30;7.00;;;2.33;;
76693;SDS011;65625;52.136;5.424;2023-04-01T02:53:58;6.45;;;2.58;;
76693;SDS011;65625;52.136;5.424;2023-04-01T02:56:25;5.70;;;2.72;;
76693;SDS011;65625;52.136;5.424;2023-04-01T02:58:52;7.10;;;2.95;;
76693;SDS011;65625;52.136;5.424;2023-04-01T03:01:20;7.20;;;2.63;;
76693;SDS011;65625;52.136;5.424;2023-04-01T03:03:47;7.72;;;2.42;;
76693;SDS011;65625;52.136;5.424;2023-04-01T03:06:15;5.50;;;2.35;;
76693;SDS011;65625;52.136;5.424;2023-04-01T03:08:42;4.38;;;2.15;;
76693;SDS011;65625;52.136;5.424;2023-04-01T03:11:10;5.82;;;2.22;;
76693;SDS011;65625;52.136;5.424;2023-04-01T03:13:37;6.50;;;2.10;;
76693;SDS011;65625;52.136;5.424;2023-04-01T03:16:04;6.05;;;2.08;;
76693;SDS011;65625;52.136;5.424;2023-04-01T03:18:31;5.15;;;2.10;;
76693;SDS011;65625;52.136;5.424;2023-04-01T03:21:11;6.05;;;1.98;;
76693;SDS011;65625;52.136;5.424;2023-04-01T03:23:48;7.38;;;2.08;;
76693;SDS011;65625;52.136;5.424;2023-04-01T03:26:16;4.15;;;1.85;;
76693;SDS011;65625;52.136;5.424;2023-04-01T03:28:43;5.35;;;2.20;;
76693;SDS011;65625;52.136;5.424;2023-04-01T03:31:10;4.68;;;2.28;;
76693;SDS011;65625;52.136;5.424;2023-04-01T03:33:43;5.82;;;1.83;;
76693;SDS011;65625;52.136;5.424;2023-04-01T03:36:10;4.97;;;2.30;;
76693;SDS011;65625;52.136;5.424;2023-04-01T03:38:39;6.57;;;2.20;;
76693;SDS011;65625;52.136;5.424;2023-04-01T03:41:07;4.57;;;2.15;;
76693;SDS011;65625;52.136;5.424;2023-04-01T03:43:37;5.43;;;2.03;;
76693;SDS011;65625;52.136;5.424;2023-04-01T03:46:03;6.20;;;3.15;;
76693;SDS011;65625;52.136;5.424;2023-04-01T03:48:30;6.40;;;2.88;;
76693;SDS011;65625;52.136;5.424;2023-04-01T03:50:57;9.02;;;3.40;;
76693;SDS011;65625;52.136;5.424;2023-04-01T03:53:24;8.88;;;2.83;;
76693;SDS011;65625;52.136;5.424;2023-04-01T03:55:52;9.75;;;4.00;;
76693;SDS011;65625;52.136;5.424;2023-04-01T03:58:19;9.50;;;4.53;;
76693;SDS011;65625;52.136;5.424;2023-04-01T04:00:46;11.68;;;4.50;;
76693;SDS011;65625;52.136;5.424;2023-04-01T04:03:12;12.73;;;5.18;;
76693;SDS011;65625;52.136;5.424;2023-04-01T04:05:45;11.90;;;5.75;;
76693;SDS011;65625;52.136;5.424;2023-04-01T04:13:07;9.82;;;4.95;;
76693;SDS011;65625;52.136;5.424;2023-04-01T04:15:38;11.60;;;5.30;;
76693;SDS011;65625;52.136;5.424;2023-04-01T04:18:05;11.05;;;4.82;;
76693;SDS011;65625;52.136;5.424;2023-04-01T04:20:32;10.25;;;4.45;;
76693;SDS011;65625;52.136;5.424;2023-04-01T04:22:59;10.88;;;4.40;;
76693;SDS011;65625;52.136;5.424;2023-04-01T04:25:26;14.32;;;5.40;;
76693;SDS011;65625;52.136;5.424;2023-04-01T04:27:54;15.40;;;5.00;;
76693;SDS011;65625;52.136;5.424;2023-04-01T04:30:21;8.60;;;3.92;;
76693;SDS011;65625;52.136;5.424;2023-04-01T04:32:47;7.90;;;3.90;;
76693;SDS011;65625;52.136;5.424;2023-04-01T04:35:14;7.45;;;3.67;;
76693;SDS011;65625;52.136;5.424;2023-04-01T04:37:41;5.60;;;3.20;;
76693;SDS011;65625;52.136;5.424;2023-04-01T04:40:10;8.80;;;3.63;;
76693;SDS011;65625;52.136;5.424;2023-04-01T04:42:37;7.38;;;3.38;;
76693;SDS011;65625;52.136;5.424;2023-04-01T04:45:08;8.57;;;3.53;;
76693;SDS011;65625;52.136;5.424;2023-04-01T04:47:39;7.20;;;3.53;;
76693;SDS011;65625;52.136;5.424;2023-04-01T04:50:05;8.57;;;3.63;;
76693;SDS011;65625;52.136;5.424;2023-04-01T04:52:32;7.80;;;3.80;;
76693;SDS011;65625;52.136;5.424;2023-04-01T04:54:59;10.90;;;3.92;;
76693;SDS011;65625;52.136;5.424;2023-04-01T04:57:26;7.40;;;3.50;;
76693;SDS011;65625;52.136;5.424;2023-04-01T04:59:54;8.35;;;3.30;;
76693;SDS011;65625;52.136;5.424;2023-04-01T05:02:39;7.90;;;3.55;;
76693;SDS011;65625;52.136;5.424;2023-04-01T05:05:06;6.70;;;2.80;;
76693;SDS011;65625;52.136;5.424;2023-04-01T05:07:33;6.20;;;2.63;;
76693;SDS011;65625;52.136;5.424;2023-04-01T05:10:00;7.57;;;2.97;;
76693;SDS011;65625;52.136;5.424;2023-04-01T05:12:27;7.43;;;2.65;;
76693;SDS011;65625;52.136;5.424;2023-04-01T05:14:59;7.32;;;2.80;;
76693;SDS011;65625;52.136;5.424;2023-04-01T05:17:26;7.47;;;3.08;;
76693;SDS011;65625;52.136;5.424;2023-04-01T05:19:52;6.35;;;3.08;;
76693;SDS011;65625;52.136;5.424;2023-04-01T05:22:19;6.57;;;3.17;;
76693;SDS011;65625;52.136;5.424;2023-04-01T05:24:46;8.05;;;3.20;;
76693;SDS011;65625;52.136;5.424;2023-04-01T05:27:13;8.68;;;3.80;;
76693;SDS011;65625;52.136;5.424;2023-04-01T05:29:41;8.68;;;3.28;;
76693;SDS011;65625;52.136;5.424;2023-04-01T05:32:16;7.63;;;3.63;;
76693;SDS011;65625;52.136;5.424;2023-04-01T05:34:42;8.27;;;3.35;;
76693;SDS011;65625;52.136;5.424;2023-04-01T05:37:09;6.97;;;3.13;;
76693;SDS011;65625;52.136;5.424;2023-04-01T05:39:39;6.25;;;3.25;;
76693;SDS011;65625;52.136;5.424;2023-04-01T05:42:07;5.75;;;3.00;;
76693;SDS011;65625;52.136;5.424;2023-04-01T05:44:34;6.35;;;2.95;;
76693;SDS011;65625;52.136;5.424;2023-04-01T05:47:02;6.32;;;2.90;;
76693;SDS011;65625;52.136;5.424;2023-04-01T05:49:30;7.55;;;2.92;;
76693;SDS011;65625;52.136;5.424;2023-04-01T05:51:57;7.10;;;2.55;;
76693;SDS011;65625;52.136;5.424;2023-04-01T05:54:25;8.75;;;2.78;;
76693;SDS011;65625;52.136;5.424;2023-04-01T05:56:51;5.07;;;2.30;;
76693;SDS011;65625;52.136;5.424;2023-04-01T05:59:19;5.93;;;1.92;;
76693;SDS011;65625;52.136;5.424;2023-04-01T06:01:45;5.20;;;2.22;;
76693;SDS011;65625;52.136;5.424;2023-04-01T06:04:13;5.32;;;2.10;;
76693;SDS011;65625;52.136;5.424;2023-04-01T06:06:41;4.25;;;2.00;;
76693;SDS011;65625;52.136;5.424;2023-04-01T06:18:10;5.63;;;2.47;;
76693;SDS011;65625;52.136;5.424;2023-04-01T06:24:18;5.43;;;2.30;;
76693;SDS011;65625;52.136;5.424;2023-04-01T06:29:53;4.85;;;2.33;;
76693;SDS011;65625;52.136;5.424;2023-04-01T06:38:20;4.78;;;2.38;;
76693;SDS011;65625;52.136;5.424;2023-04-01T06:52:37;4.30;;;1.90;;
76693;SDS011;65625;52.136;5.424;2023-04-01T06:55:38;4.93;;;1.70;;
76693;SDS011;65625;52.136;5.424;2023-04-01T06:58:55;3.42;;;1.55;;
76693;SDS011;65625;52.136;5.424;2023-04-01T07:01:22;2.83;;;1.10;;
76693;SDS011;65625;52.136;5.424;2023-04-01T07:04:00;3.15;;;1.40;;
76693;SDS011;65625;52.136;5.424;2023-04-01T07:06:32;3.10;;;1.40;;
76693;SDS011;65625;52.136;5.424;2023-04-01T07:09:08;3.20;;;1.45;;
76693;SDS011;65625;52.136;5.424;2023-04-01T07:12:02;3.38;;;1.30;;
76693;SDS011;65625;52.136;5.424;2023-04-01T07:15:06;4.22;;;1.73;;
76693;SDS011;65625;52.136;5.424;2023-04-01T07:17:42;3.20;;;1.67;;
76693;SDS011;65625;52.136;5.424;2023-04-01T07:20:20;3.85;;;1.52;;
76693;SDS011;65625;52.136;5.424;2023-04-01T07:23:00;5.35;;;2.05;;
76693;SDS011;65625;52.136;5.424;2023-04-01T07:25:44;5.03;;;2.42;;
76693;SDS011;65625;52.136;5.424;2023-04-01T07:28:51;4.70;;;2.30;;
76693;SDS011;65625;52.136;5.424;2023-04-01T07:34:12;6.07;;;2.95;;
76693;SDS011;65625;52.136;5.424;2023-04-01T07:36:48;5.70;;;2.63;;
76693;SDS011;65625;52.136;5.424;2023-04-01T07:39:46;5.10;;;2.50;;
76693;SDS011;65625;52.136;5.424;2023-04-01T07:42:39;5.45;;;2.60;;
76693;SDS011;65625;52.136;5.424;2023-04-01T07:54:53;5.40;;;2.70;;
76693;SDS011;65625;52.136;5.424;2023-04-01T07:57:21;6.72;;;2.78;;
76693;SDS011;65625;52.136;5.424;2023-04-01T08:08:17;7.10;;;3.25;;
76693;SDS011;65625;52.136;5.424;2023-04-01T08:11:12;7.57;;;3.20;;
76693;SDS011;65625;52.136;5.424;2023-04-01T08:20:21;7.32;;;3.83;;
76693;SDS011;65625;52.136;5.424;2023-04-01T08:23:36;6.72;;;2.97;;
76693;SDS011;65625;52.136;5.424;2023-04-01T08:34:03;5.97;;;2.83;;
76693;SDS011;65625;52.136;5.424;2023-04-01T08:36:36;7.32;;;3.30;;
76693;SDS011;65625;52.136;5.424;2023-04-01T08:39:13;6.15;;;2.95;;
76693;SDS011;65625;52.136;5.424;2023-04-01T08:41:56;6.70;;;2.97;;
76693;SDS011;65625;52.136;5.424;2023-04-01T08:56:26;8.40;;;4.03;;
76693;SDS011;65625;52.136;5.424;2023-04-01T09:08:03;7.93;;;3.60;;
76693;SDS011;65625;52.136;5.424;2023-04-01T09:17:29;6.93;;;3.60;;
76693;SDS011;65625;52.136;5.424;2023-04-01T09:22:50;5.75;;;3.25;;
76693;SDS011;65625;52.136;5.424;2023-04-01T09:25:54;7.88;;;3.15;;
76693;SDS011;65625;52.136;5.424;2023-04-01T09:28:34;5.40;;;2.80;;
76693;SDS011;65625;52.136;5.424;2023-04-01T09:37:21;5.43;;;3.03;;
76693;SDS011;65625;52.136;5.424;2023-04-01T09:40:18;5.88;;;2.85;;
76693;SDS011;65625;52.136;5.424;2023-04-01T09:45:53;6.22;;;3.15;;
76693;SDS011;65625;52.136;5.424;2023-04-01T09:56:52;7.43;;;3.65;;
76693;SDS011;65625;52.136;5.424;2023-04-01T10:10:52;8.13;;;4.07;;
76693;SDS011;65625;52.136;5.424;2023-04-01T10:24:50;6.07;;;3.40;;
76693;SDS011;65625;52.136;5.424;2023-04-01T10:30:38;6.32;;;3.63;;
76693;SDS011;65625;52.136;5.424;2023-04-01T10:44:50;6.88;;;3.53;;
76693;SDS011;65625;52.136;5.424;2023-04-01T10:51:01;5.93;;;3.60;;
76693;SDS011;65625;52.136;5.424;2023-04-01T10:53:38;6.00;;;3.47;;
76693;SDS011;65625;52.136;5.424;2023-04-01T11:08:51;4.18;;;2.00;;
76693;SDS011;65625;52.136;5.424;2023-04-01T11:11:32;3.88;;;2.03;;
76693;SDS011;65625;52.136;5.424;2023-04-01T11:31:29;2.22;;;1.35;;
76693;SDS011;65625;52.136;5.424;2023-04-01T11:34:16;2.35;;;1.10;;
76693;SDS011;65625;52.136;5.424;2023-04-01T11:40:27;1.70;;;0.70;;
76693;SDS011;65625;52.136;5.424;2023-04-01T11:46:19;3.15;;;0.90;;
76693;SDS011;65625;52.136;5.424;2023-04-01T12:00:20;3.75;;;1.05;;
76693;SDS011;65625;52.136;5.424;2023-04-01T12:08:59;2.10;;;1.10;;
76693;SDS011;65625;52.136;5.424;2023-04-01T12:11:45;2.80;;;1.40;;
76693;SDS011;65625;52.136;5.424;2023-04-01T12:14:39;4.13;;;2.28;;
76693;SDS011;65625;52.136;5.424;2023-04-01T12:34:49;8.18;;;4.00;;
76693;SDS011;65625;52.136;5.424;2023-04-01T12:40:05;8.43;;;4.50;;
76693;SDS011;65625;52.136;5.424;2023-04-01T12:43:05;7.68;;;4.22;;
76693;SDS011;65625;52.136;5.424;2023-04-01T12:45:49;7.63;;;4.25;;
76693;SDS011;65625;52.136;5.424;2023-04-01T12:48:37;10.00;;;4.60;;
76693;SDS011;65625;52.136;5.424;2023-04-01T12:57:14;11.18;;;5.10;;
76693;SDS011;65625;52.136;5.424;2023-04-01T13:12:04;8.90;;;4.72;;
76693;SDS011;65625;52.136;5.424;2023-04-01T13:17:50;7.10;;;3.90;;
76693;SDS011;65625;52.136;5.424;2023-04-01T13:26:18;7.43;;;3.67;;
76693;SDS011;65625;52.136;5.424;2023-04-01T13:29:03;6.40;;;3.38;;
76693;SDS011;65625;52.136;5.424;2023-04-01T13:31:52;4.72;;;2.65;;
76693;SDS011;65625;52.136;5.424;2023-04-01T13:40:33;5.65;;;2.60;;
76693;SDS011;65625;52.136;5.424;2023-04-01T13:43:24;4.03;;;2.22;;
76693;SDS011;65625;52.136;5.424;2023-04-01T13:54:24;4.63;;;2.28;;
76693;SDS011;65625;52.136;5.424;2023-04-01T13:57:31;3.83;;;1.90;;
76693;SDS011;65625;52.136;5.424;2023-04-01T14:27:41;4.72;;;2.80;;
76693;SDS011;65625;52.136;5.424;2023-04-01T14:30:43;4.68;;;2.70;;
76693;SDS011;65625;52.136;5.424;2023-04-01T14:38:54;5.97;;;3.08;;
76693;SDS011;65625;52.136;5.424;2023-04-01T14:44:09;4.35;;;2.50;;
76693;SDS011;65625;52.136;5.424;2023-04-01T14:49:47;5.38;;;2.90;;
76693;SDS011;65625;52.136;5.424;2023-04-01T14:54:47;6.90;;;3.15;;
76693;SDS011;65625;52.136;5.424;2023-04-01T14:59:59;4.95;;;2.70;;
76693;SDS011;65625;52.136;5.424;2023-04-01T15:05:32;5.28;;;3.00;;
76693;SDS011;65625;52.136;5.424;2023-04-01T15:19:14;6.30;;;2.50;;
76693;SDS011;65625;52.136;5.424;2023-04-01T15:24:26;5.38;;;2.75;;
76693;SDS011;65625;52.136;5.424;2023-04-01T15:29:56;4.20;;;2.40;;
76693;SDS011;65625;52.136;5.424;2023-04-01T15:38:34;4.47;;;2.55;;
76693;SDS011;65625;52.136;5.424;2023-04-01T15:41:11;4.70;;;2.72;;
76693;SDS011;65625;52.136;5.424;2023-04-01T15:43:46;4.53;;;2.60;;
76693;SDS011;65625;52.136;5.424;2023-04-01T15:46:24;4.28;;;2.40;;
76693;SDS011;65625;52.136;5.424;2023-04-01T16:02:47;4.57;;;2.53;;
76693;SDS011;65625;52.136;5.424;2023-04-01T16:16:47;5.00;;;2.92;;
76693;SDS011;65625;52.136;5.424;2023-04-01T16:25:19;4.85;;;2.60;;
76693;SDS011;65625;52.136;5.424;2023-04-01T16:28:04;5.38;;;2.65;;
76693;SDS011;65625;52.136;5.424;2023-04-01T16:30:47;4.35;;;2.70;;
76693;SDS011;65625;52.136;5.424;2023-04-01T16:39:06;5.55;;;3.20;;
76693;SDS011;65625;52.136;5.424;2023-04-01T16:47:50;6.20;;;3.47;;
76693;SDS011;65625;52.136;5.424;2023-04-01T16:50:26;5.63;;;3.58;;
76693;SDS011;65625;52.136;5.424;2023-04-01T16:53:02;8.65;;;3.63;;
76693;SDS011;65625;52.136;5.424;2023-04-01T16:55:45;6.63;;;3.40;;
76693;SDS011;65625;52.136;5.424;2023-04-01T16:58:18;5.47;;;2.80;;
76693;SDS011;65625;52.136;5.424;2023-04-01T17:01:42;5.18;;;2.78;;
76693;SDS011;65625;52.136;5.424;2023-04-01T17:07:19;4.40;;;2.45;;
76693;SDS011;65625;52.136;5.424;2023-04-01T17:10:05;5.47;;;3.28;;
76693;SDS011;65625;52.136;5.424;2023-04-01T17:23:53;4.60;;;2.40;;
76693;SDS011;65625;52.136;5.424;2023-04-01T17:26:42;4.43;;;2.47;;
76693;SDS011;65625;52.136;5.424;2023-04-01T17:29:24;6.68;;;2.85;;
76693;SDS011;65625;52.136;5.424;2023-04-01T17:32:04;5.07;;;2.75;;
76693;SDS011;65625;52.136;5.424;2023-04-01T17:37:43;4.82;;;2.83;;
76693;SDS011;65625;52.136;5.424;2023-04-01T17:43:18;4.25;;;2.50;;
76693;SDS011;65625;52.136;5.424;2023-04-01T17:45:53;5.55;;;2.70;;
76693;SDS011;65625;52.136;5.424;2023-04-01T17:48:24;5.45;;;2.90;;
76693;SDS011;65625;52.136;5.424;2023-04-01T17:51:23;4.45;;;2.80;;
76693;SDS011;65625;52.136;5.424;2023-04-01T17:54:05;5.35;;;3.00;;
76693;SDS011;65625;52.136;5.424;2023-04-01T17:57:02;4.75;;;3.20;;
76693;SDS011;65625;52.136;5.424;2023-04-01T18:00:14;4.63;;;2.58;;
76693;SDS011;65625;52.136;5.424;2023-04-01T18:08:43;5.05;;;2.75;;
76693;SDS011;65625;52.136;5.424;2023-04-01T18:14:21;4.35;;;2.22;;
76693;SDS011;65625;52.136;5.424;2023-04-01T18:16:59;4.93;;;3.17;;
76693;SDS011;65625;52.136;5.424;2023-04-01T18:27:36;6.47;;;2.75;;
76693;SDS011;65625;52.136;5.424;2023-04-01T18:30:17;5.47;;;3.33;;
76693;SDS011;65625;52.136;5.424;2023-04-01T18:32:59;4.88;;;3.00;;
76693;SDS011;65625;52.136;5.424;2023-04-01T18:35:45;4.47;;;2.97;;
76693;SDS011;65625;52.136;5.424;2023-04-01T18:38:15;5.75;;;3.10;;
76693;SDS011;65625;52.136;5.424;2023-04-01T18:41:06;5.63;;;3.20;;
76693;SDS011;65625;52.136;5.424;2023-04-01T18:46:08;6.55;;;3.63;;
76693;SDS011;65625;52.136;5.424;2023-04-01T18:48:55;5.22;;;3.20;;
76693;SDS011;65625;52.136;5.424;2023-04-01T18:51:47;6.13;;;3.40;;
76693;SDS011;65625;52.136;5.424;2023-04-01T18:59:53;4.90;;;2.42;;
76693;SDS011;65625;52.136;5.424;2023-04-01T19:02:31;5.72;;;3.08;;
76693;SDS011;65625;52.136;5.424;2023-04-01T19:05:05;4.90;;;3.03;;
76693;SDS011;65625;52.136;5.424;2023-04-01T19:10:59;5.40;;;3.60;;
76693;SDS011;65625;52.136;5.424;2023-04-01T19:13:30;6.25;;;3.15;;
76693;SDS011;65625;52.136;5.424;2023-04-01T19:16:22;5.18;;;2.85;;
76693;SDS011;65625;52.136;5.424;2023-04-01T19:18:52;7.57;;;2.90;;
76693;SDS011;65625;52.136;5.424;2023-04-01T19:22:03;5.47;;;3.60;;
76693;SDS011;65625;52.136;5.424;2023-04-01T19:27:25;4.55;;;2.95;;
76693;SDS011;65625;52.136;5.424;2023-04-01T19:38:13;8.30;;;4.07;;
76693;SDS011;65625;52.136;5.424;2023-04-01T19:40:51;12.85;;;5.45;;
76693;SDS011;65625;52.136;5.424;2023-04-01T19:43:44;7.82;;;4.10;;
76693;SDS011;65625;52.136;5.424;2023-04-01T19:46:33;5.38;;;3.63;;
76693;SDS011;65625;52.136;5.424;2023-04-01T19:49:21;7.38;;;3.75;;
76693;SDS011;65625;52.136;5.424;2023-04-01T19:52:01;5.13;;;3.33;;
76693;SDS011;65625;52.136;5.424;2023-04-01T19:54:54;8.38;;;3.67;;
76693;SDS011;65625;52.136;5.424;2023-04-01T19:57:38;5.22;;;3.45;;
76693;SDS011;65625;52.136;5.424;2023-04-01T20:00:22;6.55;;;3.33;;
76693;SDS011;65625;52.136;5.424;2023-04-01T20:02:54;5.88;;;3.92;;
76693;SDS011;65625;52.136;5.424;2023-04-01T20:05:41;5.88;;;3.90;;
76693;SDS011;65625;52.136;5.424;2023-04-01T20:17:07;8.57;;;4.40;;
76693;SDS011;65625;52.136;5.424;2023-04-01T20:19:44;8.48;;;4.75;;
76693;SDS011;65625;52.136;5.424;2023-04-01T20:22:27;7.97;;;4.97;;
76693;SDS011;65625;52.136;5.424;2023-04-01T20:36:13;8.93;;;4.82;;
76693;SDS011;65625;52.136;5.424;2023-04-01T20:44:13;7.93;;;4.55;;
76693;SDS011;65625;52.136;5.424;2023-04-01T20:57:38;7.35;;;4.32;;
76693;SDS011;65625;52.136;5.424;2023-04-01T21:05:54;7.85;;;4.72;;
76693;SDS011;65625;52.136;5.424;2023-04-01T21:16:47;8.15;;;4.15;;
76693;SDS011;65625;52.136;5.424;2023-04-01T21:22:45;7.30;;;4.35;;
76693;SDS011;65625;52.136;5.424;2023-04-01T21:25:59;6.38;;;3.88;;
76693;SDS011;65625;52.136;5.424;2023-04-01T21:28:52;7.28;;;4.15;;
76693;SDS011;65625;52.136;5.424;2023-04-01T21:31:44;7.90;;;4.28;;
76693;SDS011;65625;52.136;5.424;2023-04-01T21:40:16;7.55;;;4.07;;
76693;SDS011;65625;52.136;5.424;2023-04-01T22:00:32;8.55;;;3.92;;
76693;SDS011;65625;52.136;5.424;2023-04-01T22:05:56;8.20;;;4.68;;
76693;SDS011;65625;52.136;5.424;2023-04-01T22:11:15;8.32;;;4.10;;
76693;SDS011;65625;52.136;5.424;2023-04-01T22:16:22;10.25;;;4.80;;
76693;SDS011;65625;52.136;5.424;2023-04-01T22:18:57;9.93;;;4.65;;
76693;SDS011;65625;52.136;5.424;2023-04-01T22:24:24;7.30;;;3.92;;
76693;SDS011;65625;52.136;5.424;2023-04-01T22:27:07;7.65;;;4.55;;
76693;SDS011;65625;52.136;5.424;2023-04-01T22:29:58;7.60;;;4.38;;
76693;SDS011;65625;52.136;5.424;2023-04-01T22:32:40;6.47;;;4.20;;
76693;SDS011;65625;52.136;5.424;2023-04-01T22:35:24;8.23;;;4.63;;
76693;SDS011;65625;52.136;5.424;2023-04-01T22:40:52;7.90;;;4.30;;
76693;SDS011;65625;52.136;5.424;2023-04-01T22:43:42;8.73;;;4.38;;
76693;SDS011;65625;52.136;5.424;2023-04-01T22:52:49;10.10;;;5.28;;
76693;SDS011;65625;52.136;5.424;2023-04-01T22:55:28;10.63;;;5.00;;
76693;SDS011;65625;52.136;5.424;2023-04-01T22:58:02;10.30;;;5.30;;
76693;SDS011;65625;52.136;5.424;2023-04-01T23:03:38;11.77;;;5.03;;
76693;SDS011;65625;52.136;5.424;2023-04-01T23:06:26;11.93;;;6.28;;
76693;SDS011;65625;52.136;5.424;2023-04-01T23:09:07;11.50;;;4.93;;
76693;SDS011;65625;52.136;5.424;2023-04-01T23:11:48;13.23;;;5.75;;
76693;SDS011;65625;52.136;5.424;2023-04-01T23:22:11;10.68;;;5.75;;
76693;SDS011;65625;52.136;5.424;2023-04-01T23:24:53;11.63;;;5.55;;
76693;SDS011;65625;52.136;5.424;2023-04-01T23:27:37;11.30;;;5.70;;
76693;SDS011;65625;52.136;5.424;2023-04-01T23:33:19;10.23;;;5.22;;
76693;SDS011;65625;52.136;5.424;2023-04-01T23:35:56;14.30;;;5.95;;
76693;SDS011;65625;52.136;5.424;2023-04-01T23:38:34;10.68;;;5.30;;
76693;SDS011;65625;52.136;5.424;2023-04-01T23:41:04;20.42;;;5.70;;
76693;SDS011;65625;52.136;5.424;2023-04-01T23:43:38;11.35;;;6.13;;
76693;SDS011;65625;52.136;5.424;2023-04-01T23:46:08;11.88;;;6.18;;
76693;SDS011;65625;52.136;5.424;2023-04-01T23:48:38;12.50;;;5.97;;
76693;SDS011;65625;52.136;5.424;2023-04-01T23:51:13;11.15;;;5.25;;
76693;SDS011;65625;52.136;5.424;2023-04-01T23:53:45;11.63;;;6.15;;
76693;SDS011;65625;52.136;5.424;2023-04-01T23:56:17;15.38;;;5.82;;
76693;SDS011;65625;52.136;5.424;2023-04-01T23:58:44;10.82;;;6.18;;
